sensor_id;sensor_type;location;lat;lon;timestamp;pressure;altitude;pressure_sealevel;temperature;humidity
77263;BME280;66373;52.334;4.806;2023-08-01T00:00:59;99806.13;;;20.66;62.87
77263;BME280;66373;52.334;4.806;2023-08-01T00:03:47;99795.66;;;20.66;62.70
77263;BME280;66373;52.334;4.806;2023-08-01T00:06:14;99794.81;;;20.66;62.89
77263;BME280;66373;52.334;4.806;2023-08-01T00:08:41;99787.06;;;20.64;62.74
77263;BME280;66373;52.334;4.806;2023-08-01T00:11:08;99784.44;;;20.64;62.77
77263;BME280;66373;52.334;4.806;2023-08-01T00:13:35;99780.91;;;20.65;62.70
77263;BME280;66373;52.334;4.806;2023-08-01T00:16:04;99767.28;;;20.59;62.90
77263;BME280;66373;52.334;4.806;2023-08-01T00:18:31;99781.81;;;20.64;63.08
77263;BME280;66373;52.334;4.806;2023-08-01T00:21:08;99753.84;;;20.49;63.15
77263;BME280;66373;52.334;4.806;2023-08-01T00:23:37;99774.97;;;20.62;62.57
77263;BME280;66373;52.334;4.806;2023-08-01T00:26:04;99711.25;;;20.28;62.93
77263;BME280;66373;52.334;4.806;2023-08-01T00:28:31;99763.69;;;20.61;62.92
77263;BME280;66373;52.334;4.806;2023-08-01T00:31:04;99758.47;;;20.61;62.93
77263;BME280;66373;52.334;4.806;2023-08-01T00:33:31;99755.06;;;20.59;62.73
77263;BME280;66373;52.334;4.806;2023-08-01T00:35:58;99734.63;;;20.50;62.96
77263;BME280;66373;52.334;4.806;2023-08-01T00:38:25;99749.00;;;20.59;62.90
77263;BME280;66373;52.334;4.806;2023-08-01T00:40:52;99755.16;;;20.58;63.19
77263;BME280;66373;52.334;4.806;2023-08-01T00:43:20;99686.59;;;20.17;62.90
77263;BME280;66373;52.334;4.806;2023-08-01T00:45:47;99720.31;;;20.40;62.83
77263;BME280;66373;52.334;4.806;2023-08-01T00:48:15;99741.16;;;20.59;63.07
77263;BME280;66373;52.334;4.806;2023-08-01T00:50:44;99732.69;;;20.54;63.07
77263;BME280;66373;52.334;4.806;2023-08-01T00:53:12;99720.47;;;20.54;62.89
77263;BME280;66373;52.334;4.806;2023-08-01T00:55:39;99727.25;;;20.58;63.26
77263;BME280;66373;52.334;4.806;2023-08-01T00:58:06;99719.47;;;20.57;62.86
77263;BME280;66373;52.334;4.806;2023-08-01T01:00:33;99721.25;;;20.56;63.09
77263;BME280;66373;52.334;4.806;2023-08-01T01:03:01;99712.63;;;20.54;63.14
77263;BME280;66373;52.334;4.806;2023-08-01T01:05:31;99724.00;;;20.53;62.76
77263;BME280;66373;52.334;4.806;2023-08-01T01:08:03;99713.56;;;20.53;62.95
77263;BME280;66373;52.334;4.806;2023-08-01T01:10:31;99716.09;;;20.55;62.70
77263;BME280;66373;52.334;4.806;2023-08-01T01:12:59;99713.50;;;20.55;62.63
77263;BME280;66373;52.334;4.806;2023-08-01T01:15:26;99686.44;;;20.39;62.76
77263;BME280;66373;52.334;4.806;2023-08-01T01:17:53;99715.31;;;20.53;62.64
77263;BME280;66373;52.334;4.806;2023-08-01T01:20:22;99706.91;;;20.48;63.03
77263;BME280;66373;52.334;4.806;2023-08-01T01:22:52;99708.44;;;20.52;62.74
77263;BME280;66373;52.334;4.806;2023-08-01T01:25:21;99699.97;;;20.47;62.76
77263;BME280;66373;52.334;4.806;2023-08-01T01:27:49;99703.44;;;20.47;63.16
77263;BME280;66373;52.334;4.806;2023-08-01T01:30:19;99710.28;;;20.50;62.98
77263;BME280;66373;52.334;4.806;2023-08-01T01:32:47;99711.13;;;20.50;62.57
77263;BME280;66373;52.334;4.806;2023-08-01T01:35:14;99706.81;;;20.49;62.93
77263;BME280;66373;52.334;4.806;2023-08-01T01:37:42;99702.53;;;20.48;62.51
77263;BME280;66373;52.334;4.806;2023-08-01T01:40:11;99702.53;;;20.48;62.65
77263;BME280;66373;52.334;4.806;2023-08-01T01:42:38;99697.28;;;20.48;62.98
77263;BME280;66373;52.334;4.806;2023-08-01T01:45:05;99720.03;;;20.46;62.69
77263;BME280;66373;52.334;4.806;2023-08-01T01:47:32;99723.41;;;20.48;62.94
77263;BME280;66373;52.334;4.806;2023-08-01T01:49:59;99718.34;;;20.45;62.76
77263;BME280;66373;52.334;4.806;2023-08-01T01:52:27;99714.03;;;20.44;63.22
77263;BME280;66373;52.334;4.806;2023-08-01T01:54:53;99709.72;;;20.43;62.77
77263;BME280;66373;52.334;4.806;2023-08-01T01:57:22;99711.41;;;20.44;62.87
77263;BME280;66373;52.334;4.806;2023-08-01T01:59:49;99711.41;;;20.44;62.75
77263;BME280;66373;52.334;4.806;2023-08-01T02:02:16;99709.72;;;20.43;62.65
77263;BME280;66373;52.334;4.806;2023-08-01T02:04:46;99712.34;;;20.43;62.76
77263;BME280;66373;52.334;4.806;2023-08-01T02:07:13;99711.50;;;20.43;62.87
77263;BME280;66373;52.334;4.806;2023-08-01T02:09:40;99697.59;;;20.42;62.69
77263;BME280;66373;52.334;4.806;2023-08-01T02:12:09;99703.66;;;20.43;62.63
77263;BME280;66373;52.334;4.806;2023-08-01T02:14:41;99697.59;;;20.42;62.76
77263;BME280;66373;52.334;4.806;2023-08-01T02:17:08;99689.75;;;20.42;62.52
77263;BME280;66373;52.334;4.806;2023-08-01T02:19:35;99687.13;;;20.42;62.83
77263;BME280;66373;52.334;4.806;2023-08-01T02:22:02;99681.06;;;20.42;62.61
77263;BME280;66373;52.334;4.806;2023-08-01T02:24:29;99670.88;;;20.36;62.75
77263;BME280;66373;52.334;4.806;2023-08-01T02:26:56;99684.59;;;20.41;62.59
77263;BME280;66373;52.334;4.806;2023-08-01T02:29:23;99681.16;;;20.40;62.65
77263;BME280;66373;52.334;4.806;2023-08-01T02:31:52;99683.75;;;20.40;62.49
77263;BME280;66373;52.334;4.806;2023-08-01T02:34:20;99685.59;;;20.38;62.70
77263;BME280;66373;52.334;4.806;2023-08-01T02:36:47;99689.91;;;20.39;62.61
77263;BME280;66373;52.334;4.806;2023-08-01T02:39:14;99692.50;;;20.39;62.92
77263;BME280;66373;52.334;4.806;2023-08-01T02:41:41;99685.59;;;20.38;62.61
77263;BME280;66373;52.334;4.806;2023-08-01T02:44:09;99685.59;;;20.38;62.63
77263;BME280;66373;52.334;4.806;2023-08-01T02:46:36;99679.63;;;20.34;62.80
77263;BME280;66373;52.334;4.806;2023-08-01T02:49:04;99695.22;;;20.36;62.90
77263;BME280;66373;52.334;4.806;2023-08-01T02:51:31;99685.72;;;20.35;62.76
77263;BME280;66373;52.334;4.806;2023-08-01T02:53:58;99686.56;;;20.36;62.71
77263;BME280;66373;52.334;4.806;2023-08-01T02:56:26;99675.41;;;20.32;63.01
77263;BME280;66373;52.334;4.806;2023-08-01T02:58:53;99684.84;;;20.34;62.92
77263;BME280;66373;52.334;4.806;2023-08-01T03:01:21;99683.09;;;20.35;62.97
77263;BME280;66373;52.334;4.806;2023-08-01T03:03:48;99685.72;;;20.35;62.51
77263;BME280;66373;52.334;4.806;2023-08-01T03:06:16;99685.84;;;20.32;62.96
77263;BME280;66373;52.334;4.806;2023-08-01T03:08:43;99673.84;;;20.28;62.84
77263;BME280;66373;52.334;4.806;2023-08-01T03:11:11;99681.47;;;20.32;62.61
77263;BME280;66373;52.334;4.806;2023-08-01T03:13:38;99675.41;;;20.32;62.60
77263;BME280;66373;52.334;4.806;2023-08-01T03:16:05;99685.06;;;20.30;62.58
77263;BME280;66373;52.334;4.806;2023-08-01T03:18:32;99683.25;;;20.32;62.92
77263;BME280;66373;52.334;4.806;2023-08-01T03:20:59;99679.78;;;20.31;62.99
77263;BME280;66373;52.334;4.806;2023-08-01T03:23:31;99679.84;;;20.30;62.86
77263;BME280;66373;52.334;4.806;2023-08-01T03:25:58;99681.53;;;20.31;62.64
77263;BME280;66373;52.334;4.806;2023-08-01T03:28:26;99664.03;;;20.16;62.63
77263;BME280;66373;52.334;4.806;2023-08-01T03:30:53;99684.31;;;20.28;62.92
77263;BME280;66373;52.334;4.806;2023-08-01T03:33:20;99680.78;;;20.29;62.95
77263;BME280;66373;52.334;4.806;2023-08-01T03:35:47;99676.66;;;20.25;62.69
77263;BME280;66373;52.334;4.806;2023-08-01T03:38:14;99688.78;;;20.26;62.87
77263;BME280;66373;52.334;4.806;2023-08-01T03:40:43;99673.56;;;20.17;62.79
77263;BME280;66373;52.334;4.806;2023-08-01T03:43:10;99689.72;;;20.25;63.02
77263;BME280;66373;52.334;4.806;2023-08-01T03:45:39;99698.47;;;20.24;62.61
77263;BME280;66373;52.334;4.806;2023-08-01T03:48:06;99689.72;;;20.25;62.75
77263;BME280;66373;52.334;4.806;2023-08-01T03:50:33;99644.59;;;19.85;62.87
77263;BME280;66373;52.334;4.806;2023-08-01T03:53:00;99697.63;;;20.23;63.00
77263;BME280;66373;52.334;4.806;2023-08-01T03:55:28;99685.84;;;20.15;62.74
77263;BME280;66373;52.334;4.806;2023-08-01T03:57:57;99697.63;;;20.23;62.79
77263;BME280;66373;52.334;4.806;2023-08-01T04:00:24;99694.16;;;20.23;63.07
77263;BME280;66373;52.334;4.806;2023-08-01T04:02:51;99696.75;;;20.23;62.88
77263;BME280;66373;52.334;4.806;2023-08-01T04:05:18;99702.91;;;20.22;63.10
77263;BME280;66373;52.334;4.806;2023-08-01T04:07:45;99696.06;;;20.19;63.06
77263;BME280;66373;52.334;4.806;2023-08-01T04:10:12;99699.59;;;20.18;63.15
77263;BME280;66373;52.334;4.806;2023-08-01T04:12:39;99696.13;;;20.18;63.00
77263;BME280;66373;52.334;4.806;2023-08-01T04:15:09;99693.38;;;20.21;62.93
77263;BME280;66373;52.334;4.806;2023-08-01T04:17:36;99692.53;;;20.20;62.57
77263;BME280;66373;52.334;4.806;2023-08-01T04:20:04;99685.13;;;20.11;62.77
77263;BME280;66373;52.334;4.806;2023-08-01T04:22:32;99695.22;;;20.19;62.74
77263;BME280;66373;52.334;4.806;2023-08-01T04:25:00;99696.91;;;20.20;62.83
77263;BME280;66373;52.334;4.806;2023-08-01T04:27:28;99695.22;;;20.19;62.85
77263;BME280;66373;52.334;4.806;2023-08-01T04:29:55;99700.44;;;20.19;62.90
77263;BME280;66373;52.334;4.806;2023-08-01T04:32:23;99701.28;;;20.19;62.72
77263;BME280;66373;52.334;4.806;2023-08-01T04:34:50;99698.75;;;20.18;63.01
77263;BME280;66373;52.334;4.806;2023-08-01T04:37:17;99689.22;;;20.17;62.80
77263;BME280;66373;52.334;4.806;2023-08-01T04:39:48;99690.97;;;20.16;62.94
77263;BME280;66373;52.334;4.806;2023-08-01T04:42:15;99695.34;;;20.16;63.42
77263;BME280;66373;52.334;4.806;2023-08-01T04:44:42;99702.41;;;20.14;63.02
77263;BME280;66373;52.334;4.806;2023-08-01T04:47:09;99697.19;;;20.14;63.12
77263;BME280;66373;52.334;4.806;2023-08-01T04:49:37;99694.59;;;20.14;63.09
77263;BME280;66373;52.334;4.806;2023-08-01T04:52:05;99678.56;;;20.03;63.48
77263;BME280;66373;52.334;4.806;2023-08-01T04:54:33;99693.66;;;20.15;62.93
77263;BME280;66373;52.334;4.806;2023-08-01T04:57:00;99697.19;;;20.14;63.17
77263;BME280;66373;52.334;4.806;2023-08-01T04:59:27;99702.50;;;20.12;63.03
77263;BME280;66373;52.334;4.806;2023-08-01T05:01:54;99705.94;;;20.13;62.97
77263;BME280;66373;52.334;4.806;2023-08-01T05:04:21;99686.47;;;20.01;63.19
77263;BME280;66373;52.334;4.806;2023-08-01T05:06:49;99701.63;;;20.12;63.27
77263;BME280;66373;52.334;4.806;2023-08-01T05:09:16;99700.72;;;20.13;63.21
77263;BME280;66373;52.334;4.806;2023-08-01T05:11:43;99701.00;;;20.07;62.90
77263;BME280;66373;52.334;4.806;2023-08-01T05:14:11;99711.25;;;20.11;63.50
77263;BME280;66373;52.334;4.806;2023-08-01T05:16:37;99700.03;;;20.09;63.13
77263;BME280;66373;52.334;4.806;2023-08-01T05:19:05;99695.78;;;20.07;63.12
77263;BME280;66373;52.334;4.806;2023-08-01T05:21:32;99692.19;;;20.09;62.88
77263;BME280;66373;52.334;4.806;2023-08-01T05:24:00;99702.56;;;20.11;63.08
77263;BME280;66373;52.334;4.806;2023-08-01T05:26:27;99697.34;;;20.11;63.46
77263;BME280;66373;52.334;4.806;2023-08-01T05:28:54;99690.72;;;20.04;63.32
77263;BME280;66373;52.334;4.806;2023-08-01T05:31:21;99706.09;;;20.10;63.09
77263;BME280;66373;52.334;4.806;2023-08-01T05:33:48;99700.03;;;20.09;63.44
77263;BME280;66373;52.334;4.806;2023-08-01T05:36:15;99682.78;;;19.88;62.90
77263;BME280;66373;52.334;4.806;2023-08-01T05:38:42;99705.25;;;20.09;63.08
77263;BME280;66373;52.334;4.806;2023-08-01T05:41:11;99704.41;;;20.09;62.89
77263;BME280;66373;52.334;4.806;2023-08-01T05:43:38;99719.22;;;20.08;63.13
77263;BME280;66373;52.334;4.806;2023-08-01T05:46:05;99716.53;;;20.10;63.24
77263;BME280;66373;52.334;4.806;2023-08-01T05:48:32;99700.47;;;20.00;63.18
77263;BME280;66373;52.334;4.806;2023-08-01T05:50:59;99714.84;;;20.09;63.28
77263;BME280;66373;52.334;4.806;2023-08-01T05:53:26;99718.38;;;20.08;62.77
77263;BME280;66373;52.334;4.806;2023-08-01T05:55:54;99720.06;;;20.09;63.36
77263;BME280;66373;52.334;4.806;2023-08-01T05:58:22;99703.44;;;19.92;63.04
77263;BME280;66373;52.334;4.806;2023-08-01T06:00:50;99729.72;;;20.07;63.21
77263;BME280;66373;52.334;4.806;2023-08-01T06:03:17;99735.78;;;20.07;62.88
77263;BME280;66373;52.334;4.806;2023-08-01T06:05:44;99719.41;;;20.04;62.96
77263;BME280;66373;52.334;4.806;2023-08-01T06:08:11;99720.50;;;19.99;62.83
77263;BME280;66373;52.334;4.806;2023-08-01T06:10:39;99743.63;;;20.07;63.03
77263;BME280;66373;52.334;4.806;2023-08-01T06:13:06;99729.09;;;20.02;63.05
77263;BME280;66373;52.334;4.806;2023-08-01T06:15:34;99748.00;;;20.07;62.58
77263;BME280;66373;52.334;4.806;2023-08-01T06:18:02;99740.94;;;20.09;63.16
77263;BME280;66373;52.334;4.806;2023-08-01T06:20:29;99747.22;;;20.05;62.65
77263;BME280;66373;52.334;4.806;2023-08-01T06:22:56;99752.31;;;20.08;63.17
77263;BME280;66373;52.334;4.806;2023-08-01T06:25:23;99748.84;;;20.07;63.27
77263;BME280;66373;52.334;4.806;2023-08-01T06:27:50;99751.38;;;20.09;63.12
77263;BME280;66373;52.334;4.806;2023-08-01T06:30:17;99752.31;;;20.08;63.10
77263;BME280;66373;52.334;4.806;2023-08-01T06:32:46;99733.56;;;19.99;63.09
77263;BME280;66373;52.334;4.806;2023-08-01T06:35:13;99747.16;;;20.06;63.19
77263;BME280;66373;52.334;4.806;2023-08-01T06:37:40;99745.25;;;20.10;62.80
77263;BME280;66373;52.334;4.806;2023-08-01T06:40:09;99741.94;;;20.06;62.73
77263;BME280;66373;52.334;4.806;2023-08-01T06:42:37;99747.72;;;20.13;62.80
77263;BME280;66373;52.334;4.806;2023-08-01T06:45:06;99747.78;;;20.11;62.54
77263;BME280;66373;52.334;4.806;2023-08-01T06:47:33;99745.09;;;20.13;62.57
77263;BME280;66373;52.334;4.806;2023-08-01T06:50:01;99750.41;;;20.11;62.63
77263;BME280;66373;52.334;4.806;2023-08-01T06:52:29;99749.47;;;20.12;62.98
77263;BME280;66373;52.334;4.806;2023-08-01T06:54:56;99763.44;;;20.11;62.59
77263;BME280;66373;52.334;4.806;2023-08-01T06:57:23;99757.31;;;20.12;62.63
77263;BME280;66373;52.334;4.806;2023-08-01T06:59:50;99768.59;;;20.13;62.67
77263;BME280;66373;52.334;4.806;2023-08-01T07:02:17;99767.81;;;20.11;62.97
77263;BME280;66373;52.334;4.806;2023-08-01T07:04:44;99755.81;;;20.07;62.76
77263;BME280;66373;52.334;4.806;2023-08-01T07:07:12;99762.59;;;20.11;63.00
77263;BME280;66373;52.334;4.806;2023-08-01T07:09:40;99767.31;;;20.03;62.97
77263;BME280;66373;52.334;4.806;2023-08-01T07:12:08;99762.69;;;20.09;62.46
77263;BME280;66373;52.334;4.806;2023-08-01T07:14:35;99760.00;;;20.11;63.00
77263;BME280;66373;52.334;4.806;2023-08-01T07:17:02;99764.22;;;20.13;62.47
77263;BME280;66373;52.334;4.806;2023-08-01T07:19:30;99766.91;;;20.12;62.74
77263;BME280;66373;52.334;4.806;2023-08-01T07:21:57;99777.22;;;20.15;62.36
77263;BME280;66373;52.334;4.806;2023-08-01T07:24:25;99778.13;;;20.14;62.83
77263;BME280;66373;52.334;4.806;2023-08-01T07:26:52;99775.53;;;20.14;62.43
77263;BME280;66373;52.334;4.806;2023-08-01T07:29:19;99779.06;;;20.13;62.97
77263;BME280;66373;52.334;4.806;2023-08-01T07:31:46;99779.91;;;20.13;62.95
77263;BME280;66373;52.334;4.806;2023-08-01T07:34:13;99773.81;;;20.13;62.95
77263;BME280;66373;52.334;4.806;2023-08-01T07:36:40;99781.59;;;20.14;62.93
77263;BME280;66373;52.334;4.806;2023-08-01T07:39:07;99757.72;;;20.03;62.60
77263;BME280;66373;52.334;4.806;2023-08-01T07:41:36;99785.91;;;20.15;62.65
77263;BME280;66373;52.334;4.806;2023-08-01T07:44:03;99787.66;;;20.15;62.74
77263;BME280;66373;52.334;4.806;2023-08-01T07:46:31;99785.31;;;20.09;62.78
77263;BME280;66373;52.334;4.806;2023-08-01T07:48:58;99808.41;;;20.18;62.91
77263;BME280;66373;52.334;4.806;2023-08-01T07:51:26;99770.09;;;19.99;62.66
77263;BME280;66373;52.334;4.806;2023-08-01T07:53:54;99794.56;;;20.16;62.83
77263;BME280;66373;52.334;4.806;2023-08-01T07:56:21;99798.94;;;20.15;62.59
77263;BME280;66373;52.334;4.806;2023-08-01T07:58:50;99750.69;;;19.86;62.64
77263;BME280;66373;52.334;4.806;2023-08-01T08:01:20;99792.75;;;20.18;62.39
77263;BME280;66373;52.334;4.806;2023-08-01T08:03:49;99801.34;;;20.20;62.42
77263;BME280;66373;52.334;4.806;2023-08-01T08:06:16;99799.53;;;20.22;62.78
77263;BME280;66373;52.334;4.806;2023-08-01T08:08:43;99795.06;;;20.24;63.05
77263;BME280;66373;52.334;4.806;2023-08-01T08:11:12;99795.28;;;20.19;62.47
77263;BME280;66373;52.334;4.806;2023-08-01T08:13:38;99804.44;;;20.28;62.32
77263;BME280;66373;52.334;4.806;2023-08-01T08:16:07;99807.97;;;20.27;62.58
77263;BME280;66373;52.334;4.806;2023-08-01T08:18:34;99808.91;;;20.26;62.87
77263;BME280;66373;52.334;4.806;2023-08-01T08:21:01;99809.81;;;20.25;62.62
77263;BME280;66373;52.334;4.806;2023-08-01T08:23:31;99818.41;;;20.27;63.00
77263;BME280;66373;52.334;4.806;2023-08-01T08:26:01;99802.75;;;20.27;62.42
77263;BME280;66373;52.334;4.806;2023-08-01T08:28:31;99818.28;;;20.30;62.44
77263;BME280;66373;52.334;4.806;2023-08-01T08:30:59;99815.66;;;20.30;62.64
77263;BME280;66373;52.334;4.806;2023-08-01T08:33:29;99813.03;;;20.30;62.75
77263;BME280;66373;52.334;4.806;2023-08-01T08:35:56;99811.34;;;20.29;62.71
77263;BME280;66373;52.334;4.806;2023-08-01T08:38:26;99818.34;;;20.28;62.57
77263;BME280;66373;52.334;4.806;2023-08-01T08:41:02;99818.41;;;20.27;62.60
77263;BME280;66373;52.334;4.806;2023-08-01T08:43:31;99819.97;;;20.31;62.79
77263;BME280;66373;52.334;4.806;2023-08-01T08:46:02;99823.63;;;20.27;62.52
77263;BME280;66373;52.334;4.806;2023-08-01T08:48:31;99827.25;;;20.24;62.42
77263;BME280;66373;52.334;4.806;2023-08-01T08:51:00;99837.19;;;20.35;62.57
77263;BME280;66373;52.334;4.806;2023-08-01T08:53:30;99833.66;;;20.36;62.51
77263;BME280;66373;52.334;4.806;2023-08-01T08:55:59;99842.31;;;20.38;62.24
77263;BME280;66373;52.334;4.806;2023-08-01T08:58:27;99843.16;;;20.39;62.67
77263;BME280;66373;52.334;4.806;2023-08-01T09:00:55;99843.16;;;20.39;62.67
77263;BME280;66373;52.334;4.806;2023-08-01T09:03:23;99848.25;;;20.42;62.54
77263;BME280;66373;52.334;4.806;2023-08-01T09:06:02;99830.41;;;20.31;62.70
77263;BME280;66373;52.334;4.806;2023-08-01T09:08:36;99825.19;;;20.31;62.42
77263;BME280;66373;52.334;4.806;2023-08-01T09:11:03;99847.19;;;20.46;62.50
77263;BME280;66373;52.334;4.806;2023-08-01T09:13:31;99846.19;;;20.48;62.54
77263;BME280;66373;52.334;4.806;2023-08-01T09:15:59;99843.44;;;20.51;62.31
77263;BME280;66373;52.334;4.806;2023-08-01T09:18:31;99848.50;;;20.54;62.05
77263;BME280;66373;52.334;4.806;2023-08-01T09:21:00;99850.19;;;20.55;62.19
77263;BME280;66373;52.334;4.806;2023-08-01T09:23:28;99856.34;;;20.54;62.00
77263;BME280;66373;52.334;4.806;2023-08-01T09:25:56;99862.34;;;20.56;62.47
77263;BME280;66373;52.334;4.806;2023-08-01T09:28:26;99825.91;;;20.34;62.50
77263;BME280;66373;52.334;4.806;2023-08-01T09:30:55;99860.63;;;20.55;62.44
77263;BME280;66373;52.334;4.806;2023-08-01T09:33:23;99876.31;;;20.55;62.35
77263;BME280;66373;52.334;4.806;2023-08-01T09:35:50;99870.81;;;20.61;62.26
77263;BME280;66373;52.334;4.806;2023-08-01T09:38:22;99864.03;;;20.57;62.21
77263;BME280;66373;52.334;4.806;2023-08-01T09:40:50;99868.00;;;20.66;62.35
77263;BME280;66373;52.334;4.806;2023-08-01T09:43:18;99863.59;;;20.66;61.89
77263;BME280;66373;52.334;4.806;2023-08-01T09:45:52;99871.44;;;20.66;62.19
77263;BME280;66373;52.334;4.806;2023-08-01T09:48:23;99883.59;;;20.67;61.64
77263;BME280;66373;52.334;4.806;2023-08-01T09:51:07;99878.44;;;20.66;62.12
77263;BME280;66373;52.334;4.806;2023-08-01T09:54:01;99874.78;;;20.70;61.88
77263;BME280;66373;52.334;4.806;2023-08-01T09:56:28;99879.28;;;20.66;62.00
77263;BME280;66373;52.334;4.806;2023-08-01T09:58:59;99873.28;;;20.64;61.74
77263;BME280;66373;52.334;4.806;2023-08-01T10:01:31;99870.81;;;20.61;62.03
77263;BME280;66373;52.334;4.806;2023-08-01T10:04:03;99889.31;;;20.76;61.51
77263;BME280;66373;52.334;4.806;2023-08-01T10:06:33;99889.31;;;20.76;61.53
77263;BME280;66373;52.334;4.806;2023-08-01T10:09:05;99884.94;;;20.76;61.84
77263;BME280;66373;52.334;4.806;2023-08-01T10:11:34;99894.53;;;20.76;61.90
77263;BME280;66373;52.334;4.806;2023-08-01T10:14:02;99903.84;;;20.81;61.53
77263;BME280;66373;52.334;4.806;2023-08-01T10:16:30;99883.09;;;20.78;61.34
77263;BME280;66373;52.334;4.806;2023-08-01T10:19:03;99905.69;;;20.79;61.84
77263;BME280;66373;52.334;4.806;2023-08-01T10:21:33;99891.78;;;20.79;61.43
77263;BME280;66373;52.334;4.806;2023-08-01T10:24:01;99894.63;;;20.74;61.27
77263;BME280;66373;52.334;4.806;2023-08-01T10:26:31;99903.75;;;20.83;61.27
77263;BME280;66373;52.334;4.806;2023-08-01T10:29:00;99908.06;;;20.84;61.41
77263;BME280;66373;52.334;4.806;2023-08-01T10:31:28;99897.47;;;20.87;61.63
77263;BME280;66373;52.334;4.806;2023-08-01T10:34:04;99911.59;;;20.83;61.48
77263;BME280;66373;52.334;4.806;2023-08-01T10:36:33;99895.53;;;20.73;61.48
77263;BME280;66373;52.334;4.806;2023-08-01T10:39:03;99902.72;;;20.87;61.35
77263;BME280;66373;52.334;4.806;2023-08-01T10:41:35;99911.59;;;20.83;61.70
77263;BME280;66373;52.334;4.806;2023-08-01T10:44:07;99906.63;;;20.78;61.35
77263;BME280;66373;52.334;4.806;2023-08-01T10:46:49;99912.78;;;20.77;61.57
77263;BME280;66373;52.334;4.806;2023-08-01T10:49:18;99925.59;;;20.82;61.76
77263;BME280;66373;52.334;4.806;2023-08-01T10:51:46;99929.31;;;20.78;61.69
77263;BME280;66373;52.334;4.806;2023-08-01T10:54:19;99929.00;;;20.84;62.04
77263;BME280;66373;52.334;4.806;2023-08-01T10:56:50;99949.97;;;20.82;61.84
77263;BME280;66373;52.334;4.806;2023-08-01T10:59:18;99944.81;;;20.81;61.89
77263;BME280;66373;52.334;4.806;2023-08-01T11:01:47;99944.06;;;20.79;62.05
77263;BME280;66373;52.334;4.806;2023-08-01T11:04:15;99951.91;;;20.79;61.56
77263;BME280;66373;52.334;4.806;2023-08-01T11:06:46;99923.84;;;20.63;61.96
77263;BME280;66373;52.334;4.806;2023-08-01T11:09:17;99946.81;;;20.76;61.77
77263;BME280;66373;52.334;4.806;2023-08-01T11:11:47;99927.16;;;20.67;61.49
77263;BME280;66373;52.334;4.806;2023-08-01T11:14:16;99916.00;;;20.63;61.85
77263;BME280;66373;52.334;4.806;2023-08-01T11:16:48;99944.81;;;20.81;61.89
77263;BME280;66373;52.334;4.806;2023-08-01T11:19:20;99937.75;;;20.83;61.85
77263;BME280;66373;52.334;4.806;2023-08-01T11:21:47;99946.69;;;20.79;62.20
77263;BME280;66373;52.334;4.806;2023-08-01T11:24:15;99948.34;;;20.80;61.68
77263;BME280;66373;52.334;4.806;2023-08-01T11:26:43;99934.22;;;20.84;62.09
77263;BME280;66373;52.334;4.806;2023-08-01T11:29:10;99896.88;;;20.63;61.62
77263;BME280;66373;52.334;4.806;2023-08-01T11:31:39;99943.47;;;20.91;61.68
77263;BME280;66373;52.334;4.806;2023-08-01T11:34:07;99939.16;;;20.90;61.67
77263;BME280;66373;52.334;4.806;2023-08-01T11:36:36;99951.94;;;20.96;61.63
77263;BME280;66373;52.334;4.806;2023-08-01T11:39:04;99958.75;;;21.00;61.41
77263;BME280;66373;52.334;4.806;2023-08-01T11:41:31;99956.13;;;21.00;61.54
77263;BME280;66373;52.334;4.806;2023-08-01T11:44:03;99952.09;;;20.93;61.91
77263;BME280;66373;52.334;4.806;2023-08-01T11:46:32;99965.03;;;20.96;61.36
77263;BME280;66373;52.334;4.806;2023-08-01T11:49:02;99959.94;;;20.93;61.53
77263;BME280;66373;52.334;4.806;2023-08-01T11:51:29;99936.91;;;20.82;61.24
77263;BME280;66373;52.334;4.806;2023-08-01T11:54:00;99959.78;;;20.96;61.29
77263;BME280;66373;52.334;4.806;2023-08-01T11:56:28;99962.34;;;20.97;61.42
77263;BME280;66373;52.334;4.806;2023-08-01T11:58:55;99978.09;;;20.96;61.75
77263;BME280;66373;52.334;4.806;2023-08-01T12:01:22;99977.09;;;20.98;61.43
77263;BME280;66373;52.334;4.806;2023-08-01T12:03:50;99976.06;;;21.03;61.67
77263;BME280;66373;52.334;4.806;2023-08-01T12:06:21;99969.13;;;21.02;61.60
77263;BME280;66373;52.334;4.806;2023-08-01T12:08:49;99978.75;;;21.01;61.53
77263;BME280;66373;52.334;4.806;2023-08-01T12:11:18;99971.94;;;20.97;61.59
77263;BME280;66373;52.334;4.806;2023-08-01T12:13:45;99980.97;;;21.09;61.39
77263;BME280;66373;52.334;4.806;2023-08-01T12:16:12;99983.50;;;21.10;61.15
77263;BME280;66373;52.334;4.806;2023-08-01T12:18:41;99969.81;;;21.05;61.32
77263;BME280;66373;52.334;4.806;2023-08-01T12:21:10;99988.59;;;21.13;61.25
77263;BME280;66373;52.334;4.806;2023-08-01T12:23:39;99990.44;;;21.11;61.36
77263;BME280;66373;52.334;4.806;2023-08-01T12:26:06;99986.75;;;21.15;61.03
77263;BME280;66373;52.334;4.806;2023-08-01T12:28:33;99985.06;;;21.14;61.18
77263;BME280;66373;52.334;4.806;2023-08-01T12:31:00;99998.91;;;21.16;61.23
77263;BME280;66373;52.334;4.806;2023-08-01T12:33:29;99982.28;;;21.00;61.14
77263;BME280;66373;52.334;4.806;2023-08-01T12:35:56;99994.28;;;21.04;60.68
77263;BME280;66373;52.334;4.806;2023-08-01T12:38:25;99966.44;;;20.84;60.84
77263;BME280;66373;52.334;4.806;2023-08-01T12:41:02;100005.34;;;21.09;61.10
77263;BME280;66373;52.334;4.806;2023-08-01T12:43:29;100013.75;;;21.16;61.10
77263;BME280;66373;52.334;4.806;2023-08-01T12:45:56;100000.75;;;21.14;61.29
77263;BME280;66373;52.334;4.806;2023-08-01T12:48:24;100005.75;;;21.20;60.63
77263;BME280;66373;52.334;4.806;2023-08-01T12:50:51;99981.81;;;21.09;60.65
77263;BME280;66373;52.334;4.806;2023-08-01T12:53:18;99978.00;;;21.16;60.67
77263;BME280;66373;52.334;4.806;2023-08-01T12:55:47;99995.13;;;21.23;60.82
77263;BME280;66373;52.334;4.806;2023-08-01T12:58:16;99995.28;;;21.20;60.80
77263;BME280;66373;52.334;4.806;2023-08-01T13:00:44;99998.91;;;21.16;60.39
77263;BME280;66373;52.334;4.806;2023-08-01T13:03:11;100006.69;;;21.18;60.55
77263;BME280;66373;52.334;4.806;2023-08-01T13:05:41;100007.69;;;21.15;60.42